Time,TemperatureF,DewpointF,PressureIn,WindDirection,WindDirectionDegrees,WindSpeedMPH,WindSpeedGustMPH,Humidity,HourlyPrecipIn,Conditions,Clouds,dailyrainin,SoftwareType,DateUTC
2013-07-26 00:05:00,73.9,51.1,29.98,NE,45,0.0,0.0,45,0.00,,,0.00,Customized_open2300,2013-07-26 07:05:00,
2013-07-26 00:15:00,73.6,51.4,29.98,NE,45,0.0,0.0,46,0.00,,,0.00,Customized_open2300,2013-07-26 07:15:00,
2013-07-26 00:20:00,73.2,51.1,29.98,NE,45,0.0,0.0,46,0.00,,,0.00,Customized_open2300,2013-07-26 07:20:00,
2013-07-26 00:25:00,73.2,51.7,29.99,NE,45,0.0,0.0,47,0.00,,,0.00,Customized_open2300,2013-07-26 07:25:00,
2013-07-26 00:35:00,72.7,51.8,29.99,South,180,0.0,0.0,48,0.00,,,0.00,Customized_open2300,2013-07-26 07:35:00,
2013-07-26 00:40:00,72.5,51.6,29.99,South,180,0.0,0.0,48,0.00,,,0.00,Customized_open2300,2013-07-26 07:40:00,
2013-07-26 00:45:00,72.1,51.9,29.99,South,180,0.0,0.0,49,0.00,,,0.00,Customized_open2300,2013-07-26 07:45:00,
2013-07-26 00:50:00,72.1,51.9,29.99,South,180,0.0,0.0,49,0.00,,,0.00,Customized_open2300,2013-07-26 07:50:00,
2013-07-26 00:55:00,72.0,51.7,29.99,South,180,0.0,0.0,49,0.00,,,0.00,Customized_open2300,2013-07-26 07:55:00,
2013-07-26 01:01:00,71.8,51.5,29.99,South,180,0.0,0.0,49,0.00,,,0.00,Customized_open2300,2013-07-26 08:01:00,
2013-07-26 01:10:00,71.4,51.8,29.99,South,180,0.0,0.0,50,0.00,,,0.00,Customized_open2300,2013-07-26 08:10:00,
2013-07-26 01:15:00,71.1,51.5,30.00,South,180,0.0,0.0,50,0.00,,,0.00,Customized_open2300,2013-07-26 08:15:00,
2013-07-26 01:25:00,70.7,51.7,30.00,South,180,0.0,0.0,51,0.00,,,0.00,Customized_open2300,2013-07-26 08:25:00,
2013-07-26 01:35:00,70.2,51.2,30.00,South,180,0.0,0.0,51,0.00,,,0.00,Customized_open2300,2013-07-26 08:35:00,
2013-07-26 01:40:00,70.2,51.7,30.00,South,180,0.0,0.0,52,0.00,,,0.00,Customized_open2300,2013-07-26 08:40:00,
2013-07-26 01:50:00,69.8,51.4,30.00,South,180,0.0,0.0,52,0.00,,,0.00,Customized_open2300,2013-07-26 08:50:00,
2013-07-26 01:55:00,69.6,51.2,30.01,South,180,0.0,0.0,52,0.00,,,0.00,Customized_open2300,2013-07-26 08:55:00,
2013-07-26 02:01:00,69.4,51.0,30.00,South,180,0.0,0.0,52,0.00,,,0.00,Customized_open2300,2013-07-26 09:01:00,
2013-07-26 02:10:00,69.1,50.7,30.00,South,180,0.0,0.0,52,0.00,,,0.00,Customized_open2300,2013-07-26 09:10:00,
2013-07-26 02:20:00,68.5,50.7,30.01,South,180,0.0,0.0,53,0.00,,,0.00,Customized_open2300,2013-07-26 09:20:00,
2013-07-26 02:25:00,68.4,50.4,30.01,South,180,0.0,0.0,53,0.00,,,0.00,Customized_open2300,2013-07-26 09:25:00,
2013-07-26 02:35:00,67.8,50.0,30.01,South,180,0.0,0.0,53,0.00,,,0.00,Customized_open2300,2013-07-26 09:35:00,
2013-07-26 02:40:00,67.6,49.9,30.01,South,180,0.0,0.0,53,0.00,,,0.00,Customized_open2300,2013-07-26 09:40:00,
2013-07-26 02:45:00,67.6,49.9,30.01,South,180,0.0,0.0,53,0.00,,,0.00,Customized_open2300,2013-07-26 09:45:00,
2013-07-26 02:50:00,67.3,50.0,30.02,South,180,0.0,0.0,54,0.00,,,0.00,Customized_open2300,2013-07-26 09:50:00,
2013-07-26 02:55:00,67.1,49.9,30.01,South,180,0.0,0.0,54,0.00,,,0.00,Customized_open2300,2013-07-26 09:55:00,
2013-07-26 03:01:00,66.9,49.7,30.01,South,180,0.0,0.0,54,0.00,,,0.00,Customized_open2300,2013-07-26 10:01:00,
2013-07-26 03:10:00,66.4,49.2,30.02,South,180,0.0,0.0,54,0.00,,,0.00,Customized_open2300,2013-07-26 10:10:00,
2013-07-26 03:15:00,66.0,48.9,30.02,South,180,0.0,0.0,54,0.00,,,0.00,Customized_open2300,2013-07-26 10:15:00,
2013-07-26 03:25:00,65.7,49.0,30.02,South,180,0.0,0.0,55,0.00,,,0.00,Customized_open2300,2013-07-26 10:25:00,
2013-07-26 03:30:00,65.5,48.8,30.02,South,180,0.0,0.0,55,0.00,,,0.00,Customized_open2300,2013-07-26 10:30:00,
2013-07-26 03:35:00,65.3,48.6,30.02,South,180,0.0,0.0,55,0.00,,,0.00,Customized_open2300,2013-07-26 10:35:00,
2013-07-26 03:40:00,65.1,49.0,30.03,South,180,0.0,0.0,56,0.00,,,0.00,Customized_open2300,2013-07-26 10:40:00,
2013-07-26 03:50:00,64.9,48.8,30.02,South,180,0.0,0.0,56,0.00,,,0.00,Customized_open2300,2013-07-26 10:50:00,
2013-07-26 03:55:00,64.8,48.6,30.02,South,180,0.0,0.0,56,0.00,,,0.00,Customized_open2300,2013-07-26 10:55:00,
2013-07-26 04:01:00,64.6,48.9,30.02,South,180,0.0,0.0,57,0.00,,,0.00,Customized_open2300,2013-07-26 11:01:00,
2013-07-26 04:10:00,64.2,48.6,30.03,South,180,0.0,0.0,57,0.00,,,0.00,Customized_open2300,2013-07-26 11:10:00,
2013-07-26 04:20:00,63.7,48.1,30.03,South,180,0.0,0.0,57,0.00,,,0.00,Customized_open2300,2013-07-26 11:20:00,
2013-07-26 04:25:00,63.3,48.2,30.03,South,180,0.0,0.0,58,0.00,,,0.00,Customized_open2300,2013-07-26 11:25:00,
2013-07-26 04:35:00,62.8,47.8,30.03,South,180,0.0,0.0,58,0.00,,,0.00,Customized_open2300,2013-07-26 11:35:00,
2013-07-26 04:45:00,62.2,47.8,30.04,South,180,0.0,0.0,59,0.00,,,0.00,Customized_open2300,2013-07-26 11:45:00,
2013-07-26 04:50:00,62.2,47.8,30.04,South,180,0.0,0.0,59,0.00,,,0.00,Customized_open2300,2013-07-26 11:50:00,
2013-07-26 04:55:00,62.1,47.6,30.04,South,180,0.0,0.0,59,0.00,,,0.00,Customized_open2300,2013-07-26 11:55:00,
2013-07-26 05:01:00,61.9,47.4,30.04,South,180,0.0,0.0,59,0.00,,,0.00,Customized_open2300,2013-07-26 12:01:00,
2013-07-26 05:10:00,61.7,47.8,30.05,South,180,0.0,0.0,60,0.00,,,0.00,Customized_open2300,2013-07-26 12:10:00,
2013-07-26 05:15:00,61.7,47.8,30.05,South,180,0.0,0.0,60,0.00,,,0.00,Customized_open2300,2013-07-26 12:15:00,
2013-07-26 05:20:00,61.5,47.6,30.05,South,180,0.0,0.0,60,0.00,,,0.00,Customized_open2300,2013-07-26 12:20:00,
2013-07-26 05:25:00,61.3,47.4,30.05,South,180,0.0,0.0,60,0.00,,,0.00,Customized_open2300,2013-07-26 12:25:00,
2013-07-26 05:30:00,61.3,47.4,30.05,South,180,0.0,0.0,60,0.00,,,0.00,Customized_open2300,2013-07-26 12:30:00,
2013-07-26 05:35:00,61.2,47.3,30.05,South,180,0.0,0.0,60,0.00,,,0.00,Customized_open2300,2013-07-26 12:35:00,
2013-07-26 05:45:00,60.8,47.4,30.05,South,180,0.0,0.0,61,0.00,,,0.00,Customized_open2300,2013-07-26 12:45:00,
2013-07-26 05:50:00,60.6,47.2,30.05,South,180,0.0,0.0,61,0.00,,,0.00,Customized_open2300,2013-07-26 12:50:00,
2013-07-26 05:55:00,60.4,47.0,30.05,South,180,0.0,0.0,61,0.00,,,0.00,Customized_open2300,2013-07-26 12:55:00,
2013-07-26 06:01:00,60.4,47.4,30.05,South,180,0.0,0.0,62,0.00,,,0.00,Customized_open2300,2013-07-26 13:01:00,
2013-07-26 06:10:00,59.9,46.9,30.05,South,180,0.0,0.0,62,0.00,,,0.00,Customized_open2300,2013-07-26 13:10:00,
2013-07-26 06:15:00,59.7,46.7,30.06,South,180,0.0,0.0,62,0.00,,,0.00,Customized_open2300,2013-07-26 13:15:00,
2013-07-26 06:20:00,59.5,46.5,30.06,South,180,0.0,0.0,62,0.00,,,0.00,Customized_open2300,2013-07-26 13:20:00,
2013-07-26 06:30:00,59.4,46.7,30.06,South,180,0.0,0.0,63,0.00,,,0.00,Customized_open2300,2013-07-26 13:30:00,
2013-07-26 06:40:00,59.2,47.0,30.06,South,180,0.0,0.0,64,0.00,,,0.00,Customized_open2300,2013-07-26 13:40:00,
2013-07-26 06:50:00,59.2,47.4,30.06,South,180,0.0,0.0,65,0.00,,,0.00,Customized_open2300,2013-07-26 13:50:00,
2013-07-26 06:55:00,59.0,47.2,30.07,SE,135,0.0,0.0,65,0.00,,,0.00,Customized_open2300,2013-07-26 13:55:00,
2013-07-26 07:01:00,59.2,47.4,30.07,SE,135,0.0,0.0,65,0.00,,,0.00,Customized_open2300,2013-07-26 14:01:00,
2013-07-26 07:10:00,59.4,47.6,30.07,SE,135,0.0,0.0,65,0.00,,,0.00,Customized_open2300,2013-07-26 14:10:00,
2013-07-26 07:15:00,59.5,47.8,30.07,SE,135,0.0,0.0,65,0.00,,,0.00,Customized_open2300,2013-07-26 14:15:00,
2013-07-26 07:20:00,59.7,47.9,30.07,SE,135,0.0,0.0,65,0.00,,,0.00,Customized_open2300,2013-07-26 14:20:00,
2013-07-26 07:30:00,60.1,48.7,30.07,SE,135,0.0,0.0,66,0.00,,,0.00,Customized_open2300,2013-07-26 14:30:00,
2013-07-26 07:35:00,60.4,49.1,30.06,SE,135,0.0,0.0,66,0.00,,,0.00,Customized_open2300,2013-07-26 14:35:00,
2013-07-26 07:45:00,60.6,49.7,30.06,SE,135,0.0,0.0,67,0.00,,,0.00,Customized_open2300,2013-07-26 14:45:00,
2013-07-26 07:50:00,61.0,50.0,30.06,SE,135,0.0,0.0,67,0.00,,,0.00,Customized_open2300,2013-07-26 14:50:00,
2013-07-26 07:55:00,61.5,50.5,30.07,SE,135,0.0,0.0,67,0.00,,,0.00,Customized_open2300,2013-07-26 14:55:00,
2013-07-26 08:00:00,61.7,50.6,30.06,SE,135,0.0,0.0,67,0.00,,,0.00,Customized_open2300,2013-07-26 15:00:00,
2013-07-26 08:05:00,62.1,51.0,30.06,SE,135,0.0,0.0,67,0.00,,,0.00,Customized_open2300,2013-07-26 15:05:00,
2013-07-26 08:10:00,62.4,50.9,30.07,SE,135,0.0,0.0,66,0.00,,,0.00,Customized_open2300,2013-07-26 15:10:00,
2013-07-26 08:15:00,62.8,51.2,30.07,SE,135,0.0,0.0,66,0.00,,,0.00,Customized_open2300,2013-07-26 15:15:00,
2013-07-26 08:25:00,63.7,52.1,30.08,SE,135,0.0,0.0,66,0.00,,,0.00,Customized_open2300,2013-07-26 15:25:00,
2013-07-26 08:35:00,64.4,52.3,30.08,SE,135,0.0,0.0,65,0.00,,,0.00,Customized_open2300,2013-07-26 15:35:00,
2013-07-26 08:40:00,64.9,52.4,30.08,SE,135,0.0,0.0,64,0.00,,,0.00,Customized_open2300,2013-07-26 15:40:00,
2013-07-26 08:50:00,65.7,52.7,30.08,SSE,157,0.0,0.0,63,0.00,,,0.00,Customized_open2300,2013-07-26 15:50:00,
2013-07-26 08:55:00,66.4,53.0,30.08,ESE,112,0.0,0.0,62,0.00,,,0.00,Customized_open2300,2013-07-26 15:55:00,
2013-07-26 09:00:00,66.7,53.3,30.09,ESE,112,0.0,0.0,62,0.00,,,0.00,Customized_open2300,2013-07-26 16:00:00,
2013-07-26 09:05:00,67.1,53.6,30.09,SE,135,0.0,0.0,62,0.00,,,0.00,Customized_open2300,2013-07-26 16:05:00,
2013-07-26 09:15:00,68.0,53.6,30.09,SE,135,0.0,0.0,60,0.00,,,0.00,Customized_open2300,2013-07-26 16:15:00,
2013-07-26 09:20:00,68.4,54.0,30.08,SE,135,0.0,0.0,60,0.00,,,0.00,Customized_open2300,2013-07-26 16:20:00,
2013-07-26 09:25:00,69.1,54.2,30.09,SE,135,0.0,0.0,59,0.00,,,0.00,Customized_open2300,2013-07-26 16:25:00,
2013-07-26 09:35:00,69.8,54.9,30.08,SE,135,0.0,0.0,59,0.00,,,0.00,Customized_open2300,2013-07-26 16:35:00,
2013-07-26 09:40:00,70.2,54.7,30.08,NNE,22,0.0,0.0,58,0.00,,,0.00,Customized_open2300,2013-07-26 16:40:00,
2013-07-26 09:45:00,70.3,54.9,30.09,East,90,0.0,0.0,58,0.00,,,0.00,Customized_open2300,2013-07-26 16:45:00,
2013-07-26 09:50:00,71.1,55.5,30.08,NE,45,0.0,0.0,58,0.00,,,0.00,Customized_open2300,2013-07-26 16:50:00,
2013-07-26 09:55:00,71.8,55.7,30.08,ESE,112,0.0,0.0,57,0.00,,,0.00,Customized_open2300,2013-07-26 16:55:00,
2013-07-26 10:00:00,72.1,56.0,30.08,ESE,112,0.0,0.0,57,0.00,,,0.00,Customized_open2300,2013-07-26 17:00:00,
2013-07-26 10:10:00,73.2,56.5,30.07,ENE,67,0.0,0.0,56,0.00,,,0.00,Customized_open2300,2013-07-26 17:10:00,
2013-07-26 10:15:00,73.8,56.5,30.07,NNE,22,0.0,0.0,55,0.00,,,0.00,Customized_open2300,2013-07-26 17:15:00,
2013-07-26 10:20:00,74.1,56.3,30.07,NNW,337,0.0,0.0,54,0.00,,,0.00,Customized_open2300,2013-07-26 17:20:00,
2013-07-26 10:25:00,74.1,55.8,30.08,West,270,0.0,0.0,53,0.00,,,0.00,Customized_open2300,2013-07-26 17:25:00,
2013-07-26 10:30:00,74.1,55.8,30.08,NNW,337,0.0,0.0,53,0.00,,,0.00,Customized_open2300,2013-07-26 17:30:00,
2013-07-26 10:35:00,74.3,56.0,30.08,West,270,0.0,0.0,53,0.00,,,0.00,Customized_open2300,2013-07-26 17:35:00,
2013-07-26 10:45:00,75.0,56.2,30.07,NE,45,0.0,0.0,52,0.00,,,0.00,Customized_open2300,2013-07-26 17:45:00,
2013-07-26 10:50:00,75.0,55.7,30.07,NNW,337,0.0,0.0,51,0.00,,,0.00,Customized_open2300,2013-07-26 17:50:00,
2013-07-26 10:55:00,75.6,56.2,30.07,SSW,202,0.0,0.0,51,0.00,,,0.00,Customized_open2300,2013-07-26 17:55:00,
2013-07-26 11:00:00,75.9,56.0,30.07,NNE,22,0.0,0.0,50,0.00,,,0.00,Customized_open2300,2013-07-26 18:00:00,
2013-07-26 11:05:00,76.3,56.9,30.07,North,0,0.0,0.0,51,0.00,,,0.00,Customized_open2300,2013-07-26 18:05:00,
2013-07-26 11:15:00,76.6,55.5,30.07,NNW,337,0.0,0.0,48,0.00,,,0.00,Customized_open2300,2013-07-26 18:15:00,
2013-07-26 11:20:00,76.8,55.6,30.08,NNW,337,0.0,0.0,48,0.00,,,0.00,Customized_open2300,2013-07-26 18:20:00,
2013-07-26 11:30:00,77.0,55.8,30.07,WNW,292,0.0,0.0,48,0.00,,,0.00,Customized_open2300,2013-07-26 18:30:00,
2013-07-26 11:35:00,77.2,56.6,30.07,ENE,67,0.0,0.0,49,0.00,,,0.00,Customized_open2300,2013-07-26 18:35:00,
2013-07-26 11:40:00,77.7,55.8,30.08,SSW,202,0.0,0.0,47,0.00,,,0.00,Customized_open2300,2013-07-26 18:40:00,
2013-07-26 11:45:00,77.9,57.2,30.08,NE,45,0.0,0.0,49,0.00,,,0.00,Customized_open2300,2013-07-26 18:45:00,
2013-07-26 11:50:00,78.4,57.1,30.07,SE,135,0.0,0.0,48,0.00,,,0.00,Customized_open2300,2013-07-26 18:50:00,
2013-07-26 12:00:00,78.6,56.6,30.07,NE,45,0.0,0.0,47,0.00,,,0.00,Customized_open2300,2013-07-26 19:00:00,
2013-07-26 12:05:00,79.0,57.0,30.07,NNE,22,0.0,0.0,47,0.00,,,0.00,Customized_open2300,2013-07-26 19:05:00,
2013-07-26 12:15:00,79.5,56.8,30.07,North,0,0.0,0.0,46,0.00,,,0.00,Customized_open2300,2013-07-26 19:15:00,
2013-07-26 12:20:00,79.9,57.2,30.07,NNW,337,0.0,0.0,46,0.00,,,0.00,Customized_open2300,2013-07-26 19:20:00,
2013-07-26 12:30:00,80.4,57.6,30.07,North,0,0.0,0.0,46,0.00,,,0.00,Customized_open2300,2013-07-26 19:30:00,
2013-07-26 12:35:00,80.8,58.0,30.06,NW,315,0.0,0.0,46,0.00,,,0.00,Customized_open2300,2013-07-26 19:35:00,
2013-07-26 12:40:00,81.1,57.7,30.06,NNW,337,0.0,0.0,45,0.00,,,0.00,Customized_open2300,2013-07-26 19:40:00,
2013-07-26 12:45:00,81.1,57.7,30.06,NNE,22,0.0,0.0,45,0.00,,,0.00,Customized_open2300,2013-07-26 19:45:00,
2013-07-26 12:50:00,81.3,58.5,30.06,North,0,0.0,0.0,46,0.00,,,0.00,Customized_open2300,2013-07-26 19:50:00,
2013-07-26 12:55:00,82.0,58.5,30.06,NNE,22,0.0,0.0,45,0.00,,,0.00,Customized_open2300,2013-07-26 19:55:00,
2013-07-26 13:05:00,82.6,58.4,30.06,NNW,337,0.0,0.0,44,0.00,,,0.00,Customized_open2300,2013-07-26 20:05:00,
2013-07-26 13:15:00,83.1,57.6,30.05,North,0,0.0,0.0,42,0.00,,,0.00,Customized_open2300,2013-07-26 20:15:00,
2013-07-26 13:20:00,83.3,57.2,30.05,WNW,292,0.0,0.0,41,0.00,,,0.00,Customized_open2300,2013-07-26 20:20:00,
2013-07-26 13:30:00,84.4,57.5,30.05,NNW,337,0.0,0.0,40,0.00,,,0.00,Customized_open2300,2013-07-26 20:30:00,
2013-07-26 13:35:00,84.6,56.1,30.05,NW,315,0.0,0.0,38,0.00,,,0.00,Customized_open2300,2013-07-26 20:35:00,
2013-07-26 13:45:00,84.7,56.3,30.04,NNW,337,0.0,0.0,38,0.00,,,0.00,Customized_open2300,2013-07-26 20:45:00,
2013-07-26 13:50:00,84.7,56.4,30.04,NNW,337,0.0,0.0,38,0.00,,,0.00,Customized_open2300,2013-07-26 20:50:00,
2013-07-26 14:00:00,85.3,56.8,30.04,NNE,22,0.0,0.0,38,0.00,,,0.00,Customized_open2300,2013-07-26 21:00:00,
2013-07-26 14:05:00,85.6,57.1,30.04,ENE,67,0.0,0.0,38,0.00,,,0.00,Customized_open2300,2013-07-26 21:05:00,
2013-07-26 14:15:00,86.7,58.0,30.04,WSW,247,0.0,0.0,38,0.00,,,0.00,Customized_open2300,2013-07-26 21:15:00,
2013-07-26 14:20:00,86.7,58.0,30.04,WSW,247,0.0,0.0,38,0.00,,,0.00,Customized_open2300,2013-07-26 21:20:00,
2013-07-26 14:25:00,87.1,57.6,30.04,WSW,247,0.0,0.0,37,0.00,,,0.00,Customized_open2300,2013-07-26 21:25:00,
2013-07-26 14:30:00,87.1,58.4,30.03,WSW,247,0.0,0.0,38,0.00,,,0.00,Customized_open2300,2013-07-26 21:30:00,
2013-07-26 14:35:00,87.4,58.7,30.03,WSW,247,0.0,0.0,38,0.00,,,0.00,Customized_open2300,2013-07-26 21:35:00,
2013-07-26 14:40:00,87.6,59.6,30.03,WSW,247,0.0,0.0,39,0.00,,,0.00,Customized_open2300,2013-07-26 21:40:00,
2013-07-26 14:45:00,88.0,59.1,30.03,WSW,247,0.0,0.0,38,0.00,,,0.00,Customized_open2300,2013-07-26 21:45:00,
2013-07-26 14:50:00,88.3,59.4,30.03,WSW,247,0.0,0.0,38,0.00,,,0.00,Customized_open2300,2013-07-26 21:50:00,
2013-07-26 15:00:00,88.5,58.0,30.03,WSW,247,0.0,0.0,36,0.00,,,0.00,Customized_open2300,2013-07-26 22:00:00,
2013-07-26 15:05:00,88.5,58.0,30.03,WSW,247,0.0,0.0,36,0.00,,,0.00,Customized_open2300,2013-07-26 22:05:00,
2013-07-26 15:10:00,88.5,58.8,30.02,WSW,247,0.0,0.0,37,0.00,,,0.00,Customized_open2300,2013-07-26 22:10:00,
2013-07-26 15:15:00,88.9,58.3,30.02,WSW,247,0.0,0.0,36,0.00,,,0.00,Customized_open2300,2013-07-26 22:15:00,
2013-07-26 15:20:00,89.1,58.4,30.03,WSW,247,0.0,0.0,36,0.00,,,0.00,Customized_open2300,2013-07-26 22:20:00,
2013-07-26 15:25:00,89.2,58.6,30.03,WSW,247,0.0,0.0,36,0.00,,,0.00,Customized_open2300,2013-07-26 22:25:00,
2013-07-26 15:35:00,89.4,57.9,30.02,WSW,247,0.0,0.0,35,0.00,,,0.00,Customized_open2300,2013-07-26 22:35:00,
2013-07-26 15:40:00,89.8,58.3,30.02,WSW,247,0.0,0.0,35,0.00,,,0.00,Customized_open2300,2013-07-26 22:40:00,
2013-07-26 15:45:00,89.8,57.5,30.02,WSW,247,0.0,0.0,34,0.00,,,0.00,Customized_open2300,2013-07-26 22:45:00,
2013-07-26 15:50:00,89.8,56.7,30.02,WSW,247,0.0,0.0,33,0.00,,,0.00,Customized_open2300,2013-07-26 22:50:00,
2013-07-26 15:55:00,89.8,56.7,30.02,WSW,247,0.0,0.0,33,0.00,,,0.00,Customized_open2300,2013-07-26 22:55:00,
2013-07-26 16:05:00,90.0,55.3,30.02,WSW,247,0.0,0.0,31,0.00,,,0.00,Customized_open2300,2013-07-26 23:05:00,
2013-07-26 16:10:00,90.1,56.2,30.02,WSW,247,0.0,0.0,32,0.00,,,0.00,Customized_open2300,2013-07-26 23:10:00,
2013-07-26 16:15:00,90.1,55.4,30.02,WSW,247,0.0,0.0,31,0.00,,,0.00,Customized_open2300,2013-07-26 23:15:00,
2013-07-26 16:20:00,90.3,57.2,30.02,WSW,247,0.0,0.0,33,0.00,,,0.00,Customized_open2300,2013-07-26 23:20:00,
2013-07-26 16:25:00,90.3,56.4,30.02,WSW,247,0.0,0.0,32,0.00,,,0.00,Customized_open2300,2013-07-26 23:25:00,
2013-07-26 16:30:00,90.5,55.7,30.02,WSW,247,0.0,0.0,31,0.00,,,0.00,Customized_open2300,2013-07-26 23:30:00,
2013-07-26 16:35:00,90.3,55.6,30.02,WSW,247,0.0,0.0,31,0.00,,,0.00,Customized_open2300,2013-07-26 23:35:00,
2013-07-26 16:45:00,90.5,56.5,30.01,WSW,247,0.0,0.0,32,0.00,,,0.00,Customized_open2300,2013-07-26 23:45:00,
2013-07-26 16:50:00,90.5,56.5,30.01,WSW,247,0.0,0.0,32,0.00,,,0.00,Customized_open2300,2013-07-26 23:50:00,
2013-07-26 16:55:00,90.7,56.7,30.01,WSW,247,0.0,0.0,32,0.00,,,0.00,Customized_open2300,2013-07-26 23:55:00,
2013-07-26 17:00:00,90.7,56.7,30.01,WSW,247,0.0,0.0,32,0.00,,,0.00,Customized_open2300,2013-07-27 00:00:00,
2013-07-26 17:05:00,90.7,56.7,30.01,WSW,247,0.0,0.0,32,0.00,,,0.00,Customized_open2300,2013-07-27 00:05:00,
2013-07-26 17:15:00,90.7,56.7,30.00,WSW,247,0.0,0.0,32,0.00,,,0.00,Customized_open2300,2013-07-27 00:15:00,
2013-07-26 17:20:00,90.7,56.7,30.00,WSW,247,0.0,0.0,32,0.00,,,0.00,Customized_open2300,2013-07-27 00:20:00,
2013-07-26 17:25:00,90.9,56.9,30.00,WSW,247,0.0,0.0,32,0.00,,,0.00,Customized_open2300,2013-07-27 00:25:00,
2013-07-26 17:35:00,90.3,57.2,30.00,WSW,247,0.0,0.0,33,0.00,,,0.00,Customized_open2300,2013-07-27 00:35:00,
2013-07-26 17:40:00,90.5,56.5,30.00,WSW,247,0.0,0.0,32,0.00,,,0.00,Customized_open2300,2013-07-27 00:40:00,
2013-07-26 17:50:00,90.7,55.9,30.00,WSW,247,0.0,0.0,31,0.00,,,0.00,Customized_open2300,2013-07-27 00:50:00,
2013-07-26 18:00:00,90.9,56.1,30.00,WSW,247,0.0,0.0,31,0.00,,,0.00,Customized_open2300,2013-07-27 01:00:00,
2013-07-26 18:05:00,91.0,57.0,30.00,WSW,247,0.0,0.0,32,0.00,,,0.00,Customized_open2300,2013-07-27 01:05:00,
2013-07-26 18:15:00,91.0,56.2,30.00,WSW,247,0.0,0.0,31,0.00,,,0.00,Customized_open2300,2013-07-27 01:15:00,
2013-07-26 18:20:00,91.0,56.2,30.00,WSW,247,0.0,0.0,31,0.00,,,0.00,Customized_open2300,2013-07-27 01:20:00,
2013-07-26 18:25:00,90.7,56.7,30.00,WSW,247,0.0,0.0,32,0.00,,,0.00,Customized_open2300,2013-07-27 01:25:00,
2013-07-26 18:35:00,90.1,55.4,30.00,WSW,247,0.0,0.0,31,0.00,,,0.00,Customized_open2300,2013-07-27 01:35:00,
2013-07-26 18:40:00,90.1,55.4,30.00,WSW,247,0.0,0.0,31,0.00,,,0.00,Customized_open2300,2013-07-27 01:40:00,
2013-07-26 18:50:00,89.8,55.1,29.99,WSW,247,0.0,0.0,31,0.00,,,0.00,Customized_open2300,2013-07-27 01:50:00,
2013-07-26 18:55:00,89.8,55.1,30.00,WSW,247,0.0,0.0,31,0.00,,,0.00,Customized_open2300,2013-07-27 01:55:00,
2013-07-26 19:00:00,89.6,54.9,30.00,WSW,247,0.0,0.0,31,0.00,,,0.00,Customized_open2300,2013-07-27 02:00:00,
2013-07-26 19:05:00,89.2,54.6,30.00,WSW,247,0.0,0.0,31,0.00,,,0.00,Customized_open2300,2013-07-27 02:05:00,
2013-07-26 19:15:00,88.5,54.8,29.99,NNW,337,0.0,0.0,32,0.00,,,0.00,Customized_open2300,2013-07-27 02:15:00,
2013-07-26 19:25:00,87.8,55.8,30.00,NNW,337,0.0,0.0,34,0.00,,,0.00,Customized_open2300,2013-07-27 02:25:00,
2013-07-26 19:35:00,87.1,55.1,30.00,NNE,22,0.0,0.0,34,0.00,,,0.00,Customized_open2300,2013-07-27 02:35:00,
2013-07-26 19:45:00,86.5,55.5,30.01,NNW,337,0.0,0.0,35,0.00,,,0.00,Customized_open2300,2013-07-27 02:45:00,
2013-07-26 19:50:00,85.8,54.9,30.01,NNW,337,0.0,0.0,35,0.00,,,0.00,Customized_open2300,2013-07-27 02:50:00,
2013-07-26 19:55:00,85.6,54.7,30.01,North,0,0.0,0.0,35,0.00,,,0.00,Customized_open2300,2013-07-27 02:55:00,
2013-07-26 20:00:00,85.3,55.2,30.01,NNW,337,0.0,0.0,36,0.00,,,0.00,Customized_open2300,2013-07-27 03:00:00,
2013-07-26 20:05:00,84.7,54.7,30.01,North,0,0.0,0.0,36,0.00,,,0.00,Customized_open2300,2013-07-27 03:05:00,
2013-07-26 20:15:00,84.0,54.0,30.01,North,0,0.0,0.0,36,0.00,,,0.00,Customized_open2300,2013-07-27 03:15:00,
2013-07-26 20:20:00,83.5,53.6,30.01,North,0,0.0,0.0,36,0.00,,,0.00,Customized_open2300,2013-07-27 03:20:00,
2013-07-26 20:25:00,83.1,53.2,30.02,NNE,22,0.0,0.0,36,0.00,,,0.00,Customized_open2300,2013-07-27 03:25:00,
2013-07-26 20:30:00,82.9,53.1,30.02,North,0,0.0,0.0,36,0.00,,,0.00,Customized_open2300,2013-07-27 03:30:00,
2013-07-26 20:40:00,82.0,52.3,30.02,North,0,0.0,0.0,36,0.00,,,0.00,Customized_open2300,2013-07-27 03:40:00,
2013-07-26 20:45:00,81.9,52.1,30.02,North,0,0.0,0.0,36,0.00,,,0.00,Customized_open2300,2013-07-27 03:45:00,
2013-07-26 20:50:00,81.3,50.9,30.02,North,0,0.0,0.0,35,0.00,,,0.00,Customized_open2300,2013-07-27 03:50:00,
2013-07-26 20:55:00,81.1,50.7,30.03,NE,45,0.0,0.0,35,0.00,,,0.00,Customized_open2300,2013-07-27 03:55:00,
2013-07-26 21:00:00,80.8,50.4,30.03,NNE,22,0.0,0.0,35,0.00,,,0.00,Customized_open2300,2013-07-27 04:00:00,
2013-07-26 21:05:00,80.2,49.9,30.04,North,0,0.0,0.0,35,0.00,,,0.00,Customized_open2300,2013-07-27 04:05:00,
2013-07-26 21:10:00,79.9,49.6,30.04,North,0,0.0,0.0,35,0.00,,,0.00,Customized_open2300,2013-07-27 04:10:00,
2013-07-26 21:15:00,79.5,49.3,30.04,North,0,0.0,0.0,35,0.00,,,0.00,Customized_open2300,2013-07-27 04:15:00,
2013-07-26 21:25:00,79.0,48.8,30.05,North,0,0.0,0.0,35,0.00,,,0.00,Customized_open2300,2013-07-27 04:25:00,
2013-07-26 21:30:00,79.0,48.8,30.05,NNW,337,0.0,0.0,35,0.00,,,0.00,Customized_open2300,2013-07-27 04:30:00,
2013-07-26 21:35:00,78.6,49.3,30.05,NNW,337,0.0,0.0,36,0.00,,,0.00,Customized_open2300,2013-07-27 04:35:00,
2013-07-26 21:45:00,78.1,49.6,30.06,NE,45,0.0,0.0,37,0.00,,,0.00,Customized_open2300,2013-07-27 04:45:00,
2013-07-26 21:50:00,77.7,49.2,30.06,NE,45,0.0,0.0,37,0.00,,,0.00,Customized_open2300,2013-07-27 04:50:00,
2013-07-26 21:55:00,77.5,49.1,30.06,North,0,0.0,0.0,37,0.00,,,0.00,Customized_open2300,2013-07-27 04:55:00,
2013-07-26 22:00:00,77.2,48.8,30.07,NE,45,0.0,0.0,38,0.00,,,0.00,Customized_open2300,2013-07-27 05:00:00,
2013-07-26 22:10:00,76.6,49.1,30.07,NE,45,0.0,0.0,38,0.00,,,0.00,Customized_open2300,2013-07-27 05:10:00,
2013-07-26 22:15:00,76.3,49.5,30.07,NE,45,0.0,0.0,39,0.00,,,0.00,Customized_open2300,2013-07-27 05:15:00,
2013-07-26 22:25:00,75.7,49.0,30.07,NE,45,0.0,0.0,39,0.00,,,0.00,Customized_open2300,2013-07-27 05:25:00,
2013-07-26 22:30:00,75.4,49.4,30.07,NE,45,0.0,0.0,40,0.00,,,0.00,Customized_open2300,2013-07-27 05:30:00,
2013-07-26 22:40:00,74.8,49.5,30.07,NE,45,0.0,0.0,41,0.00,,,0.00,Customized_open2300,2013-07-27 05:40:00,
2013-07-26 22:45:00,74.3,49.1,30.07,NE,45,0.0,0.0,41,0.00,,,0.00,Customized_open2300,2013-07-27 05:45:00,
2013-07-26 22:50:00,73.9,49.3,30.08,NE,45,0.0,0.0,42,0.00,,,0.00,Customized_open2300,2013-07-27 05:50:00,
2013-07-26 22:55:00,73.9,49.3,30.08,NE,45,0.0,0.0,42,0.00,,,0.00,Customized_open2300,2013-07-27 05:55:00,
2013-07-26 23:00:00,73.6,49.0,30.08,NE,45,0.0,0.0,42,0.00,,,0.00,Customized_open2300,2013-07-27 06:00:00,
2013-07-26 23:05:00,73.2,48.7,30.08,NE,45,0.0,0.0,42,0.00,,,0.00,Customized_open2300,2013-07-27 06:05:00,
2013-07-26 23:10:00,73.2,48.7,30.08,NE,45,0.0,0.0,42,0.00,,,0.00,Customized_open2300,2013-07-27 06:10:00,
2013-07-26 23:20:00,72.7,48.8,30.08,NE,45,0.0,0.0,43,0.00,,,0.00,Customized_open2300,2013-07-27 06:20:00,
2013-07-26 23:25:00,72.3,48.5,30.08,NE,45,0.0,0.0,43,0.00,,,0.00,Customized_open2300,2013-07-27 06:25:00,
2013-07-26 23:30:00,72.1,48.3,30.08,NE,45,0.0,0.0,43,0.00,,,0.00,Customized_open2300,2013-07-27 06:30:00,
2013-07-26 23:40:00,72.0,48.1,30.09,NW,315,0.0,0.0,43,0.00,,,0.00,Customized_open2300,2013-07-27 06:40:00,
2013-07-26 23:50:00,71.2,47.5,30.09,NW,315,0.0,0.0,43,0.00,,,0.00,Customized_open2300,2013-07-27 06:50:00,
2013-07-26 23:55:00,71.2,47.5,30.09,NW,315,0.0,0.0,43,0.00,,,0.00,Customized_open2300,2013-07-27 06:55:00,